Airfield :
LOGIN :

Register | Disclaimer

   EN    FR    IT 

 










Legend :    VFR   Marginal VFR   IFR   Intensive IFR   Very Intensive IFR
Visi :
Ceiling :
>= 8 km
>= 3000ft
5 to 8 km
1000 to 3000 ft
1500m to 5 km
500 to 1000 ft
800 to 1500m
200 to 500 ft
< 800m
< 200 ft
Symbols :   Thunderstorms  Fog  Heavy snow  Heavy precipitations  Wind > 20 kt
SIGMETs :     Misc.  Thunderstorms  Icing  Turbulence  Mountain Waves  Volcanic Ashes






- Airport Elevation : 39 ft
- IATA code : SUF


LICA - Lamezia Terme

CURRENT METAR :
  • 231120Z AUTO 23013KT 200V260 9999 BKN036/// 15/10 Q1008

EXPIRED METARs :
  • 231050Z AUTO 21009KT 180V240 9999 SCT046/// 15/09 Q1008
  • 231020Z AUTO VRB02KT 9999 BKN048/// 13/08 Q1009
  • 230950Z AUTO 31003KT 9999 BKN055/// 12/09 Q1009
  • 230920Z AUTO VRB02KT 9999 BKN061/// 12/09 Q1009
  • 230850Z AUTO 03007KT 9999 -RA OVC064/// 12/09 Q1010 RERA

TAF TAF LICA
Valid from the 23 at 12:00 until the 24 at 12:00 UTC


231100Z 2312/2412 28012KT 9999 SCT030
TEMPO 2312/2318 4000 TSRA
TEMPO 2318/2412 RA



MET'MAP, your aeronautical weather chart ! - Copyright ORBIFLY December 2007 - Disclaimer

ORBIFLY MET'MAP TEAM :

Programming & Development : Alexandra Zaïnal
Concept & original design : Baudouin d'Aumeries
Assistance for programming : Marc-Olivier Méhu
Technical & hardware support : Manuel Goepfert

Contact : metmap@orbifly.com




SOURCES & CREDITS :

   NOAA